sensor_id;sensor_type;location;lat;lon;timestamp;P1;durP1;ratioP1;P2;durP2;ratioP2
15198;SDS011;7700;48.654;9.070;2023-04-16T02:11:56;6.07;;;5.53;;
15198;SDS011;7700;48.654;9.070;2023-04-16T02:14:28;6.23;;;5.63;;
15198;SDS011;7700;48.654;9.070;2023-04-16T02:16:54;6.27;;;5.67;;
15198;SDS011;7700;48.654;9.070;2023-04-16T02:19:20;6.30;;;5.70;;
15198;SDS011;7700;48.654;9.070;2023-04-16T02:21:47;6.10;;;5.50;;
15198;SDS011;7700;48.654;9.070;2023-04-16T02:24:13;6.30;;;5.70;;
15198;SDS011;7700;48.654;9.070;2023-04-16T02:26:39;5.43;;;5.00;;
15198;SDS011;7700;48.654;9.070;2023-04-16T02:29:05;5.77;;;5.27;;
15198;SDS011;7700;48.654;9.070;2023-04-16T02:31:31;5.37;;;4.87;;
15198;SDS011;7700;48.654;9.070;2023-04-16T02:33:57;4.97;;;4.57;;
15198;SDS011;7700;48.654;9.070;2023-04-16T02:36:23;5.70;;;5.17;;
15198;SDS011;7700;48.654;9.070;2023-04-16T02:38:49;5.63;;;5.13;;
15198;SDS011;7700;48.654;9.070;2023-04-16T02:41:15;4.63;;;4.23;;
15198;SDS011;7700;48.654;9.070;2023-04-16T02:43:41;5.60;;;5.10;;
15198;SDS011;7700;48.654;9.070;2023-04-16T02:46:07;5.00;;;4.60;;
15198;SDS011;7700;48.654;9.070;2023-04-16T02:48:33;5.57;;;4.93;;
15198;SDS011;7700;48.654;9.070;2023-04-16T02:50:59;5.30;;;4.80;;
15198;SDS011;7700;48.654;9.070;2023-04-16T02:53:25;5.67;;;5.17;;
15198;SDS011;7700;48.654;9.070;2023-04-16T02:55:52;7.03;;;5.30;;
15198;SDS011;7700;48.654;9.070;2023-04-16T02:58:18;5.40;;;4.90;;
15198;SDS011;7700;48.654;9.070;2023-04-16T03:00:44;4.97;;;4.57;;
15198;SDS011;7700;48.654;9.070;2023-04-16T03:03:10;5.73;;;5.13;;
15198;SDS011;7700;48.654;9.070;2023-04-16T03:05:36;6.10;;;5.40;;
15198;SDS011;7700;48.654;9.070;2023-04-16T03:08:03;6.00;;;5.37;;
15198;SDS011;7700;48.654;9.070;2023-04-16T03:10:29;5.60;;;5.10;;
15198;SDS011;7700;48.654;9.070;2023-04-16T03:12:55;5.60;;;5.03;;
15198;SDS011;7700;48.654;9.070;2023-04-16T03:15:21;5.80;;;5.30;;
15198;SDS011;7700;48.654;9.070;2023-04-16T03:17:47;5.07;;;4.53;;
15198;SDS011;7700;48.654;9.070;2023-04-16T03:20:13;6.17;;;5.63;;
15198;SDS011;7700;48.654;9.070;2023-04-16T03:22:41;6.47;;;5.87;;
15198;SDS011;7700;48.654;9.070;2023-04-16T03:25:07;6.80;;;6.10;;
15198;SDS011;7700;48.654;9.070;2023-04-16T03:27:33;7.10;;;6.40;;
15198;SDS011;7700;48.654;9.070;2023-04-16T03:30:00;7.70;;;6.30;;
15198;SDS011;7700;48.654;9.070;2023-04-16T03:32:26;6.80;;;6.10;;
15198;SDS011;7700;48.654;9.070;2023-04-16T03:34:52;6.50;;;5.90;;
15198;SDS011;7700;48.654;9.070;2023-04-16T03:37:18;7.53;;;6.67;;
15198;SDS011;7700;48.654;9.070;2023-04-16T03:39:44;7.97;;;7.17;;
15198;SDS011;7700;48.654;9.070;2023-04-16T03:42:10;7.93;;;7.17;;
15198;SDS011;7700;48.654;9.070;2023-04-16T03:44:36;7.43;;;6.73;;
15198;SDS011;7700;48.654;9.070;2023-04-16T03:47:02;8.20;;;6.93;;
15198;SDS011;7700;48.654;9.070;2023-04-16T03:49:28;7.63;;;6.90;;
15198;SDS011;7700;48.654;9.070;2023-04-16T03:51:53;7.50;;;6.70;;
15198;SDS011;7700;48.654;9.070;2023-04-16T03:54:19;9.10;;;8.03;;
15198;SDS011;7700;48.654;9.070;2023-04-16T03:56:45;10.30;;;8.13;;
15198;SDS011;7700;48.654;9.070;2023-04-16T03:59:12;8.37;;;7.47;;
15198;SDS011;7700;48.654;9.070;2023-04-16T04:01:37;9.37;;;7.70;;
15198;SDS011;7700;48.654;9.070;2023-04-16T04:04:03;7.07;;;6.40;;
15198;SDS011;7700;48.654;9.070;2023-04-16T04:06:30;7.20;;;6.43;;
15198;SDS011;7700;48.654;9.070;2023-04-16T04:08:57;8.63;;;7.67;;
15198;SDS011;7700;48.654;9.070;2023-04-16T04:11:23;8.23;;;7.07;;
15198;SDS011;7700;48.654;9.070;2023-04-16T04:13:49;7.03;;;6.17;;
15198;SDS011;7700;48.654;9.070;2023-04-16T04:16:15;7.37;;;6.57;;
15198;SDS011;7700;48.654;9.070;2023-04-16T04:18:41;7.63;;;6.20;;
15198;SDS011;7700;48.654;9.070;2023-04-16T04:21:07;8.00;;;7.00;;
15198;SDS011;7700;48.654;9.070;2023-04-16T04:23:34;8.17;;;7.17;;
15198;SDS011;7700;48.654;9.070;2023-04-16T04:26:00;7.80;;;7.00;;
15198;SDS011;7700;48.654;9.070;2023-04-16T04:28:32;7.77;;;6.97;;
15198;SDS011;7700;48.654;9.070;2023-04-16T04:30:58;8.70;;;7.33;;
15198;SDS011;7700;48.654;9.070;2023-04-16T04:33:25;7.40;;;6.00;;
15198;SDS011;7700;48.654;9.070;2023-04-16T04:35:51;7.17;;;6.13;;
15198;SDS011;7700;48.654;9.070;2023-04-16T04:38:17;7.37;;;6.27;;
15198;SDS011;7700;48.654;9.070;2023-04-16T04:40:45;7.27;;;6.47;;
15198;SDS011;7700;48.654;9.070;2023-04-16T04:43:11;7.63;;;6.33;;
15198;SDS011;7700;48.654;9.070;2023-04-16T04:45:37;6.43;;;5.77;;
15198;SDS011;7700;48.654;9.070;2023-04-16T04:48:03;7.40;;;6.67;;
15198;SDS011;7700;48.654;9.070;2023-04-16T04:50:29;7.67;;;6.17;;
15198;SDS011;7700;48.654;9.070;2023-04-16T04:52:55;6.80;;;6.07;;
15198;SDS011;7700;48.654;9.070;2023-04-16T04:55:21;6.93;;;6.23;;
15198;SDS011;7700;48.654;9.070;2023-04-16T04:57:48;7.67;;;6.87;;
15198;SDS011;7700;48.654;9.070;2023-04-16T05:00:14;7.40;;;6.03;;
15198;SDS011;7700;48.654;9.070;2023-04-16T05:02:40;6.60;;;5.77;;
15198;SDS011;7700;48.654;9.070;2023-04-16T05:05:06;6.50;;;5.90;;
15198;SDS011;7700;48.654;9.070;2023-04-16T05:07:32;7.17;;;5.77;;
15198;SDS011;7700;48.654;9.070;2023-04-16T05:09:58;7.17;;;6.10;;
15198;SDS011;7700;48.654;9.070;2023-04-16T05:12:25;6.53;;;5.90;;
15198;SDS011;7700;48.654;9.070;2023-04-16T05:14:50;7.50;;;6.70;;
15198;SDS011;7700;48.654;9.070;2023-04-16T05:17:16;7.53;;;6.73;;
15198;SDS011;7700;48.654;9.070;2023-04-16T05:19:42;7.00;;;6.30;;
15198;SDS011;7700;48.654;9.070;2023-04-16T05:22:08;9.60;;;7.27;;
15198;SDS011;7700;48.654;9.070;2023-04-16T05:24:34;8.40;;;7.53;;
15198;SDS011;7700;48.654;9.070;2023-04-16T05:27:00;8.63;;;6.73;;
15198;SDS011;7700;48.654;9.070;2023-04-16T05:29:26;8.33;;;7.00;;
15198;SDS011;7700;48.654;9.070;2023-04-16T05:31:52;8.30;;;7.00;;
15198;SDS011;7700;48.654;9.070;2023-04-16T05:34:18;7.70;;;6.67;;
15198;SDS011;7700;48.654;9.070;2023-04-16T05:36:44;8.67;;;7.23;;
15198;SDS011;7700;48.654;9.070;2023-04-16T05:39:10;8.63;;;7.17;;
15198;SDS011;7700;48.654;9.070;2023-04-16T05:41:36;11.23;;;9.90;;
15198;SDS011;7700;48.654;9.070;2023-04-16T05:44:02;16.20;;;12.77;;
15198;SDS011;7700;48.654;9.070;2023-04-16T05:46:28;14.37;;;12.37;;
15198;SDS011;7700;48.654;9.070;2023-04-16T05:48:54;17.10;;;13.37;;
15198;SDS011;7700;48.654;9.070;2023-04-16T05:51:19;16.90;;;12.53;;
15198;SDS011;7700;48.654;9.070;2023-04-16T05:53:48;18.13;;;14.07;;
15198;SDS011;7700;48.654;9.070;2023-04-16T05:56:14;18.23;;;14.20;;
15198;SDS011;7700;48.654;9.070;2023-04-16T05:58:40;16.87;;;13.90;;
15198;SDS011;7700;48.654;9.070;2023-04-16T06:01:06;18.53;;;14.37;;
15198;SDS011;7700;48.654;9.070;2023-04-16T06:03:31;19.43;;;15.27;;
15198;SDS011;7700;48.654;9.070;2023-04-16T06:05:57;20.27;;;15.50;;
15198;SDS011;7700;48.654;9.070;2023-04-16T06:08:23;20.47;;;15.80;;
15198;SDS011;7700;48.654;9.070;2023-04-16T06:10:49;22.20;;;16.67;;
15198;SDS011;7700;48.654;9.070;2023-04-16T06:13:15;22.20;;;16.97;;
15198;SDS011;7700;48.654;9.070;2023-04-16T06:15:41;23.20;;;17.90;;
15198;SDS011;7700;48.654;9.070;2023-04-16T06:18:07;24.80;;;18.70;;
15198;SDS011;7700;48.654;9.070;2023-04-16T06:20:33;18.73;;;15.57;;
15198;SDS011;7700;48.654;9.070;2023-04-16T06:22:59;22.20;;;15.70;;
15198;SDS011;7700;48.654;9.070;2023-04-16T06:25:25;20.13;;;16.30;;
15198;SDS011;7700;48.654;9.070;2023-04-16T06:27:51;21.50;;;16.17;;
15198;SDS011;7700;48.654;9.070;2023-04-16T06:30:17;22.67;;;16.23;;
15198;SDS011;7700;48.654;9.070;2023-04-16T06:32:44;24.57;;;17.80;;
15198;SDS011;7700;48.654;9.070;2023-04-16T06:35:10;24.47;;;17.50;;
15198;SDS011;7700;48.654;9.070;2023-04-16T06:37:36;25.67;;;18.00;;
15198;SDS011;7700;48.654;9.070;2023-04-16T06:40:03;24.50;;;17.80;;
15198;SDS011;7700;48.654;9.070;2023-04-16T06:42:29;26.17;;;18.70;;
15198;SDS011;7700;48.654;9.070;2023-04-16T06:44:55;26.00;;;18.60;;
15198;SDS011;7700;48.654;9.070;2023-04-16T06:47:28;30.27;;;19.90;;
15198;SDS011;7700;48.654;9.070;2023-04-16T06:49:54;26.10;;;19.90;;
15198;SDS011;7700;48.654;9.070;2023-04-16T06:52:20;27.30;;;20.20;;
15198;SDS011;7700;48.654;9.070;2023-04-16T06:54:46;28.03;;;20.20;;
15198;SDS011;7700;48.654;9.070;2023-04-16T06:57:12;29.33;;;21.53;;
15198;SDS011;7700;48.654;9.070;2023-04-16T06:59:38;32.00;;;22.90;;
15198;SDS011;7700;48.654;9.070;2023-04-16T07:02:04;30.77;;;22.73;;
15198;SDS011;7700;48.654;9.070;2023-04-16T07:04:30;31.63;;;22.40;;
15198;SDS011;7700;48.654;9.070;2023-04-16T07:06:56;34.13;;;26.40;;
15198;SDS011;7700;48.654;9.070;2023-04-16T07:09:22;30.97;;;23.33;;
15198;SDS011;7700;48.654;9.070;2023-04-16T07:11:48;31.53;;;22.50;;
15198;SDS011;7700;48.654;9.070;2023-04-16T07:14:15;35.97;;;24.07;;
15198;SDS011;7700;48.654;9.070;2023-04-16T07:16:41;31.47;;;23.37;;
15198;SDS011;7700;48.654;9.070;2023-04-16T07:19:13;29.63;;;22.20;;
15198;SDS011;7700;48.654;9.070;2023-04-16T07:21:39;30.93;;;22.60;;
15198;SDS011;7700;48.654;9.070;2023-04-16T07:24:08;29.60;;;21.63;;
15198;SDS011;7700;48.654;9.070;2023-04-16T07:26:35;27.83;;;21.37;;
15198;SDS011;7700;48.654;9.070;2023-04-16T07:29:01;28.67;;;22.00;;
15198;SDS011;7700;48.654;9.070;2023-04-16T07:31:27;25.83;;;20.77;;
15198;SDS011;7700;48.654;9.070;2023-04-16T07:33:53;31.27;;;22.60;;
15198;SDS011;7700;48.654;9.070;2023-04-16T07:36:19;29.00;;;22.87;;
15198;SDS011;7700;48.654;9.070;2023-04-16T07:38:45;29.00;;;21.50;;
15198;SDS011;7700;48.654;9.070;2023-04-16T07:41:11;26.87;;;20.40;;
15198;SDS011;7700;48.654;9.070;2023-04-16T07:43:37;26.80;;;19.37;;
15198;SDS011;7700;48.654;9.070;2023-04-16T07:46:03;23.70;;;19.10;;
15198;SDS011;7700;48.654;9.070;2023-04-16T07:48:30;24.50;;;19.33;;
15198;SDS011;7700;48.654;9.070;2023-04-16T07:50:56;26.37;;;19.77;;
15198;SDS011;7700;48.654;9.070;2023-04-16T07:53:22;27.20;;;19.87;;
15198;SDS011;7700;48.654;9.070;2023-04-16T07:55:48;25.17;;;19.23;;
15198;SDS011;7700;48.654;9.070;2023-04-16T07:58:14;23.57;;;19.57;;
15198;SDS011;7700;48.654;9.070;2023-04-16T08:00:40;26.17;;;18.57;;
15198;SDS011;7700;48.654;9.070;2023-04-16T08:03:06;22.17;;;18.03;;
15198;SDS011;7700;48.654;9.070;2023-04-16T08:05:32;23.10;;;18.40;;
15198;SDS011;7700;48.654;9.070;2023-04-16T08:07:58;24.73;;;19.97;;
15198;SDS011;7700;48.654;9.070;2023-04-16T08:10:24;22.80;;;18.70;;
15198;SDS011;7700;48.654;9.070;2023-04-16T08:12:50;25.00;;;19.77;;
15198;SDS011;7700;48.654;9.070;2023-04-16T08:15:22;23.40;;;19.27;;
15198;SDS011;7700;48.654;9.070;2023-04-16T08:17:48;25.63;;;19.13;;
15198;SDS011;7700;48.654;9.070;2023-04-16T08:20:17;24.07;;;18.70;;
15198;SDS011;7700;48.654;9.070;2023-04-16T08:22:46;23.97;;;19.53;;
15198;SDS011;7700;48.654;9.070;2023-04-16T08:25:13;22.90;;;17.97;;
15198;SDS011;7700;48.654;9.070;2023-04-16T08:27:39;23.40;;;19.33;;
15198;SDS011;7700;48.654;9.070;2023-04-16T08:30:05;24.70;;;19.47;;
15198;SDS011;7700;48.654;9.070;2023-04-16T08:32:32;23.73;;;19.63;;
15198;SDS011;7700;48.654;9.070;2023-04-16T08:34:58;24.63;;;19.73;;
15198;SDS011;7700;48.654;9.070;2023-04-16T08:37:24;21.17;;;18.10;;
15198;SDS011;7700;48.654;9.070;2023-04-16T08:39:50;23.93;;;19.27;;
15198;SDS011;7700;48.654;9.070;2023-04-16T08:42:29;21.77;;;17.93;;
15198;SDS011;7700;48.654;9.070;2023-04-16T08:45:01;19.77;;;16.93;;
15198;SDS011;7700;48.654;9.070;2023-04-16T08:47:28;22.07;;;18.17;;
15198;SDS011;7700;48.654;9.070;2023-04-16T08:49:56;20.97;;;18.37;;
15198;SDS011;7700;48.654;9.070;2023-04-16T08:52:23;23.10;;;18.17;;
15198;SDS011;7700;48.654;9.070;2023-04-16T08:55:11;21.97;;;17.57;;
15198;SDS011;7700;48.654;9.070;2023-04-16T08:57:38;20.93;;;16.87;;
15198;SDS011;7700;48.654;9.070;2023-04-16T09:00:06;20.87;;;17.67;;
15198;SDS011;7700;48.654;9.070;2023-04-16T09:02:33;20.23;;;16.50;;
15198;SDS011;7700;48.654;9.070;2023-04-16T09:04:59;18.87;;;16.83;;
15198;SDS011;7700;48.654;9.070;2023-04-16T09:07:26;21.43;;;17.57;;
15198;SDS011;7700;48.654;9.070;2023-04-16T09:09:53;21.20;;;16.97;;
15198;SDS011;7700;48.654;9.070;2023-04-16T09:12:22;17.23;;;14.03;;
15198;SDS011;7700;48.654;9.070;2023-04-16T09:14:48;18.47;;;14.93;;
15198;SDS011;7700;48.654;9.070;2023-04-16T09:17:15;18.43;;;14.40;;
15198;SDS011;7700;48.654;9.070;2023-04-16T09:19:41;21.63;;;15.37;;
15198;SDS011;7700;48.654;9.070;2023-04-16T09:22:07;18.30;;;14.70;;
15198;SDS011;7700;48.654;9.070;2023-04-16T09:24:33;17.53;;;14.53;;
15198;SDS011;7700;48.654;9.070;2023-04-16T09:26:59;17.93;;;14.87;;
15198;SDS011;7700;48.654;9.070;2023-04-16T09:29:32;16.27;;;14.47;;
15198;SDS011;7700;48.654;9.070;2023-04-16T09:32:00;16.97;;;14.00;;
15198;SDS011;7700;48.654;9.070;2023-04-16T09:34:27;18.07;;;15.10;;
15198;SDS011;7700;48.654;9.070;2023-04-16T09:36:53;15.73;;;13.47;;
15198;SDS011;7700;48.654;9.070;2023-04-16T09:39:19;15.83;;;14.10;;
15198;SDS011;7700;48.654;9.070;2023-04-16T09:41:46;16.67;;;13.47;;
15198;SDS011;7700;48.654;9.070;2023-04-16T09:44:12;17.03;;;13.97;;
15198;SDS011;7700;48.654;9.070;2023-04-16T09:46:41;16.17;;;14.27;;
15198;SDS011;7700;48.654;9.070;2023-04-16T09:49:07;18.27;;;14.43;;
15198;SDS011;7700;48.654;9.070;2023-04-16T09:51:39;18.77;;;15.27;;
15198;SDS011;7700;48.654;9.070;2023-04-16T09:54:05;18.27;;;16.20;;
15198;SDS011;7700;48.654;9.070;2023-04-16T09:56:31;19.23;;;14.83;;
15198;SDS011;7700;48.654;9.070;2023-04-16T09:59:00;21.13;;;16.13;;
15198;SDS011;7700;48.654;9.070;2023-04-16T10:03:36;19.73;;;14.97;;
15198;SDS011;7700;48.654;9.070;2023-04-16T10:08:50;22.47;;;17.07;;
15198;SDS011;7700;48.654;9.070;2023-04-16T10:11:17;19.57;;;16.33;;
15198;SDS011;7700;48.654;9.070;2023-04-16T10:13:43;19.70;;;16.47;;
15198;SDS011;7700;48.654;9.070;2023-04-16T10:16:09;22.77;;;17.90;;
15198;SDS011;7700;48.654;9.070;2023-04-16T10:18:36;19.50;;;15.87;;
15198;SDS011;7700;48.654;9.070;2023-04-16T10:21:02;20.57;;;15.63;;
15198;SDS011;7700;48.654;9.070;2023-04-16T10:23:28;23.10;;;16.70;;
15198;SDS011;7700;48.654;9.070;2023-04-16T10:25:55;20.80;;;16.33;;
15198;SDS011;7700;48.654;9.070;2023-04-16T10:28:22;20.10;;;16.13;;
15198;SDS011;7700;48.654;9.070;2023-04-16T10:30:49;20.70;;;16.60;;
15198;SDS011;7700;48.654;9.070;2023-04-16T10:33:19;20.47;;;16.93;;
15198;SDS011;7700;48.654;9.070;2023-04-16T10:35:45;20.63;;;15.93;;
15198;SDS011;7700;48.654;9.070;2023-04-16T10:38:24;23.67;;;17.53;;
15198;SDS011;7700;48.654;9.070;2023-04-16T10:40:58;23.53;;;17.53;;
15198;SDS011;7700;48.654;9.070;2023-04-16T10:43:27;23.07;;;16.93;;
15198;SDS011;7700;48.654;9.070;2023-04-16T10:45:53;19.03;;;15.03;;
15198;SDS011;7700;48.654;9.070;2023-04-16T10:48:19;18.67;;;14.77;;
15198;SDS011;7700;48.654;9.070;2023-04-16T10:50:55;20.53;;;15.37;;
15198;SDS011;7700;48.654;9.070;2023-04-16T10:53:24;20.20;;;15.97;;
15198;SDS011;7700;48.654;9.070;2023-04-16T10:55:57;21.03;;;16.50;;
15198;SDS011;7700;48.654;9.070;2023-04-16T10:58:35;20.97;;;15.40;;
15198;SDS011;7700;48.654;9.070;2023-04-16T11:01:05;17.63;;;14.33;;
15198;SDS011;7700;48.654;9.070;2023-04-16T11:03:31;16.93;;;13.67;;
15198;SDS011;7700;48.654;9.070;2023-04-16T11:06:10;16.40;;;13.20;;
15198;SDS011;7700;48.654;9.070;2023-04-16T11:08:41;19.97;;;15.90;;
15198;SDS011;7700;48.654;9.070;2023-04-16T11:11:09;20.77;;;15.27;;
15198;SDS011;7700;48.654;9.070;2023-04-16T11:13:35;15.97;;;13.03;;
15198;SDS011;7700;48.654;9.070;2023-04-16T11:16:02;19.43;;;14.67;;
15198;SDS011;7700;48.654;9.070;2023-04-16T11:18:28;16.67;;;12.50;;
15198;SDS011;7700;48.654;9.070;2023-04-16T11:20:54;15.53;;;13.23;;
15198;SDS011;7700;48.654;9.070;2023-04-16T11:23:20;16.07;;;13.03;;
15198;SDS011;7700;48.654;9.070;2023-04-16T11:25:46;13.63;;;11.07;;
15198;SDS011;7700;48.654;9.070;2023-04-16T11:28:12;16.00;;;13.23;;
15198;SDS011;7700;48.654;9.070;2023-04-16T11:30:38;16.07;;;13.70;;
15198;SDS011;7700;48.654;9.070;2023-04-16T11:33:09;13.20;;;11.07;;
15198;SDS011;7700;48.654;9.070;2023-04-16T11:35:38;13.47;;;10.80;;
15198;SDS011;7700;48.654;9.070;2023-04-16T11:38:05;13.80;;;11.73;;
15198;SDS011;7700;48.654;9.070;2023-04-16T11:40:31;12.43;;;10.90;;
15198;SDS011;7700;48.654;9.070;2023-04-16T11:43:01;13.80;;;10.47;;
15198;SDS011;7700;48.654;9.070;2023-04-16T11:45:27;12.27;;;10.07;;
15198;SDS011;7700;48.654;9.070;2023-04-16T11:47:53;12.33;;;10.30;;
15198;SDS011;7700;48.654;9.070;2023-04-16T11:52:48;12.30;;;9.90;;
15198;SDS011;7700;48.654;9.070;2023-04-16T11:55:14;13.30;;;10.07;;
15198;SDS011;7700;48.654;9.070;2023-04-16T11:57:40;10.27;;;9.10;;
15198;SDS011;7700;48.654;9.070;2023-04-16T12:00:06;12.40;;;9.20;;
15198;SDS011;7700;48.654;9.070;2023-04-16T12:05:28;9.50;;;8.50;;
15198;SDS011;7700;48.654;9.070;2023-04-16T12:07:53;9.17;;;8.13;;
15198;SDS011;7700;48.654;9.070;2023-04-16T12:10:19;9.90;;;8.90;;
15198;SDS011;7700;48.654;9.070;2023-04-16T12:12:45;11.20;;;8.93;;
15198;SDS011;7700;48.654;9.070;2023-04-16T12:15:11;11.20;;;9.23;;
15198;SDS011;7700;48.654;9.070;2023-04-16T12:17:37;9.17;;;8.17;;
15198;SDS011;7700;48.654;9.070;2023-04-16T12:20:13;9.33;;;8.07;;
15198;SDS011;7700;48.654;9.070;2023-04-16T12:22:39;10.53;;;7.87;;
15198;SDS011;7700;48.654;9.070;2023-04-16T12:25:12;8.80;;;7.50;;
15198;SDS011;7700;48.654;9.070;2023-04-16T12:27:48;7.20;;;6.10;;
15198;SDS011;7700;48.654;9.070;2023-04-16T12:30:18;6.43;;;5.77;;
15198;SDS011;7700;48.654;9.070;2023-04-16T12:32:47;7.67;;;6.87;;
15198;SDS011;7700;48.654;9.070;2023-04-16T12:35:13;6.70;;;6.00;;
15198;SDS011;7700;48.654;9.070;2023-04-16T12:37:53;8.40;;;6.60;;
15198;SDS011;7700;48.654;9.070;2023-04-16T12:40:19;7.03;;;5.80;;
15198;SDS011;7700;48.654;9.070;2023-04-16T12:42:45;7.73;;;6.33;;
15198;SDS011;7700;48.654;9.070;2023-04-16T12:45:11;6.83;;;6.13;;
15198;SDS011;7700;48.654;9.070;2023-04-16T12:47:37;5.67;;;5.03;;
15198;SDS011;7700;48.654;9.070;2023-04-16T12:50:03;5.43;;;4.87;;
15198;SDS011;7700;48.654;9.070;2023-04-16T12:52:29;4.57;;;4.17;;
15198;SDS011;7700;48.654;9.070;2023-04-16T12:54:55;5.20;;;4.70;;
15198;SDS011;7700;48.654;9.070;2023-04-16T12:57:21;4.10;;;3.80;;
15198;SDS011;7700;48.654;9.070;2023-04-16T12:59:52;3.70;;;3.40;;
15198;SDS011;7700;48.654;9.070;2023-04-16T13:02:18;3.73;;;3.37;;
15198;SDS011;7700;48.654;9.070;2023-04-16T13:04:44;4.30;;;3.90;;
15198;SDS011;7700;48.654;9.070;2023-04-16T13:07:10;4.40;;;3.93;;
15198;SDS011;7700;48.654;9.070;2023-04-16T13:09:36;4.40;;;4.00;;
15198;SDS011;7700;48.654;9.070;2023-04-16T13:12:02;6.23;;;5.60;;
15198;SDS011;7700;48.654;9.070;2023-04-16T13:14:28;4.13;;;3.83;;
15198;SDS011;7700;48.654;9.070;2023-04-16T13:16:54;4.50;;;4.00;;
15198;SDS011;7700;48.654;9.070;2023-04-16T13:19:20;3.57;;;3.27;;
15198;SDS011;7700;48.654;9.070;2023-04-16T13:21:46;3.53;;;3.23;;
15198;SDS011;7700;48.654;9.070;2023-04-16T13:24:12;3.60;;;3.30;;
15198;SDS011;7700;48.654;9.070;2023-04-16T13:26:38;4.37;;;3.73;;
15198;SDS011;7700;48.654;9.070;2023-04-16T13:29:04;3.97;;;3.57;;
15198;SDS011;7700;48.654;9.070;2023-04-16T13:31:30;4.73;;;4.33;;
15198;SDS011;7700;48.654;9.070;2023-04-16T13:33:56;4.47;;;4.07;;
15198;SDS011;7700;48.654;9.070;2023-04-16T13:36:22;4.23;;;3.87;;
15198;SDS011;7700;48.654;9.070;2023-04-16T13:38:48;4.97;;;4.47;;
15198;SDS011;7700;48.654;9.070;2023-04-16T13:41:14;4.47;;;4.07;;
15198;SDS011;7700;48.654;9.070;2023-04-16T13:43:40;6.17;;;5.43;;
15198;SDS011;7700;48.654;9.070;2023-04-16T13:46:06;8.93;;;6.73;;
15198;SDS011;7700;48.654;9.070;2023-04-16T13:48:32;4.63;;;4.20;;
15198;SDS011;7700;48.654;9.070;2023-04-16T13:50:58;4.47;;;4.07;;
15198;SDS011;7700;48.654;9.070;2023-04-16T13:53:24;4.97;;;4.47;;
15198;SDS011;7700;48.654;9.070;2023-04-16T13:55:50;6.67;;;5.00;;
15198;SDS011;7700;48.654;9.070;2023-04-16T13:58:16;6.30;;;5.70;;
15198;SDS011;7700;48.654;9.070;2023-04-16T14:00:42;7.07;;;6.37;;
15198;SDS011;7700;48.654;9.070;2023-04-16T14:03:08;7.77;;;7.00;;
15198;SDS011;7700;48.654;9.070;2023-04-16T14:05:34;6.33;;;5.73;;
15198;SDS011;7700;48.654;9.070;2023-04-16T14:08:00;8.83;;;6.73;;
15198;SDS011;7700;48.654;9.070;2023-04-16T14:10:26;6.93;;;6.20;;
15198;SDS011;7700;48.654;9.070;2023-04-16T14:12:52;9.00;;;7.33;;
15198;SDS011;7700;48.654;9.070;2023-04-16T14:15:18;7.73;;;5.63;;
15198;SDS011;7700;48.654;9.070;2023-04-16T14:17:44;8.07;;;6.43;;
15198;SDS011;7700;48.654;9.070;2023-04-16T14:20:11;9.17;;;8.13;;
15198;SDS011;7700;48.654;9.070;2023-04-16T14:22:38;6.17;;;5.40;;
15198;SDS011;7700;48.654;9.070;2023-04-16T14:25:04;7.60;;;6.50;;
15198;SDS011;7700;48.654;9.070;2023-04-16T14:27:30;6.73;;;6.03;;
15198;SDS011;7700;48.654;9.070;2023-04-16T14:29:58;6.27;;;5.67;;
15198;SDS011;7700;48.654;9.070;2023-04-16T14:32:24;6.53;;;5.67;;
15198;SDS011;7700;48.654;9.070;2023-04-16T14:34:50;7.37;;;6.50;;
15198;SDS011;7700;48.654;9.070;2023-04-16T14:37:17;8.07;;;6.80;;
15198;SDS011;7700;48.654;9.070;2023-04-16T14:39:43;8.27;;;6.67;;
15198;SDS011;7700;48.654;9.070;2023-04-16T14:42:09;10.00;;;7.40;;
15198;SDS011;7700;48.654;9.070;2023-04-16T14:44:35;9.00;;;7.37;;
15198;SDS011;7700;48.654;9.070;2023-04-16T14:47:01;10.93;;;7.87;;
15198;SDS011;7700;48.654;9.070;2023-04-16T14:49:27;7.83;;;7.03;;
15198;SDS011;7700;48.654;9.070;2023-04-16T14:51:53;8.77;;;7.37;;
15198;SDS011;7700;48.654;9.070;2023-04-16T14:54:20;7.70;;;6.73;;
15198;SDS011;7700;48.654;9.070;2023-04-16T14:56:46;8.57;;;7.67;;
15198;SDS011;7700;48.654;9.070;2023-04-16T14:59:12;8.33;;;7.30;;
15198;SDS011;7700;48.654;9.070;2023-04-16T15:01:38;13.37;;;11.97;;
15198;SDS011;7700;48.654;9.070;2023-04-16T15:04:05;8.80;;;7.90;;
15198;SDS011;7700;48.654;9.070;2023-04-16T15:06:32;9.80;;;8.77;;
15198;SDS011;7700;48.654;9.070;2023-04-16T15:08:58;9.33;;;8.43;;
15198;SDS011;7700;48.654;9.070;2023-04-16T15:11:24;10.60;;;9.57;;
15198;SDS011;7700;48.654;9.070;2023-04-16T15:13:50;9.83;;;8.83;;
15198;SDS011;7700;48.654;9.070;2023-04-16T15:16:16;11.90;;;10.07;;
15198;SDS011;7700;48.654;9.070;2023-04-16T15:18:42;12.27;;;10.03;;
15198;SDS011;7700;48.654;9.070;2023-04-16T15:21:08;11.67;;;10.37;;
15198;SDS011;7700;48.654;9.070;2023-04-16T15:23:34;11.47;;;10.10;;
15198;SDS011;7700;48.654;9.070;2023-04-16T15:26:06;12.87;;;10.93;;
15198;SDS011;7700;48.654;9.070;2023-04-16T15:28:32;12.33;;;11.00;;
15198;SDS011;7700;48.654;9.070;2023-04-16T15:30:58;27.43;;;23.97;;
15198;SDS011;7700;48.654;9.070;2023-04-16T15:33:24;13.90;;;12.40;;
15198;SDS011;7700;48.654;9.070;2023-04-16T15:35:50;14.90;;;12.90;;
15198;SDS011;7700;48.654;9.070;2023-04-16T15:38:16;14.57;;;12.40;;
15198;SDS011;7700;48.654;9.070;2023-04-16T15:40:43;14.83;;;12.77;;
15198;SDS011;7700;48.654;9.070;2023-04-16T15:43:09;16.63;;;14.03;;
15198;SDS011;7700;48.654;9.070;2023-04-16T15:45:35;16.13;;;13.03;;
15198;SDS011;7700;48.654;9.070;2023-04-16T15:48:01;14.40;;;12.90;;
15198;SDS011;7700;48.654;9.070;2023-04-16T15:50:29;14.73;;;12.37;;
15198;SDS011;7700;48.654;9.070;2023-04-16T15:52:55;13.93;;;12.20;;
15198;SDS011;7700;48.654;9.070;2023-04-16T15:55:21;13.30;;;11.47;;
15198;SDS011;7700;48.654;9.070;2023-04-16T15:57:53;15.90;;;13.53;;
15198;SDS011;7700;48.654;9.070;2023-04-16T16:00:20;13.80;;;12.40;;
15198;SDS011;7700;48.654;9.070;2023-04-16T16:02:46;11.07;;;9.97;;
15198;SDS011;7700;48.654;9.070;2023-04-16T16:05:12;12.43;;;11.07;;
15198;SDS011;7700;48.654;9.070;2023-04-16T16:07:39;10.60;;;9.50;;
15198;SDS011;7700;48.654;9.070;2023-04-16T16:10:05;10.20;;;9.00;;
15198;SDS011;7700;48.654;9.070;2023-04-16T16:12:32;8.97;;;8.07;;
15198;SDS011;7700;48.654;9.070;2023-04-16T16:14:58;9.67;;;8.67;;
15198;SDS011;7700;48.654;9.070;2023-04-16T16:17:26;10.80;;;9.80;;
15198;SDS011;7700;48.654;9.070;2023-04-16T16:19:52;9.00;;;8.10;;
15198;SDS011;7700;48.654;9.070;2023-04-16T16:22:20;9.97;;;8.30;;
15198;SDS011;7700;48.654;9.070;2023-04-16T16:24:47;9.93;;;8.93;;
15198;SDS011;7700;48.654;9.070;2023-04-16T16:27:15;8.80;;;8.00;;
15198;SDS011;7700;48.654;9.070;2023-04-16T16:29:41;9.60;;;8.60;;
15198;SDS011;7700;48.654;9.070;2023-04-16T16:32:07;9.63;;;8.63;;
15198;SDS011;7700;48.654;9.070;2023-04-16T16:34:33;11.03;;;10.03;;
15198;SDS011;7700;48.654;9.070;2023-04-16T16:36:59;10.57;;;9.57;;
15198;SDS011;7700;48.654;9.070;2023-04-16T16:39:25;12.77;;;11.50;;
15198;SDS011;7700;48.654;9.070;2023-04-16T16:41:51;11.40;;;10.30;;
15198;SDS011;7700;48.654;9.070;2023-04-16T16:44:18;10.30;;;9.23;;
15198;SDS011;7700;48.654;9.070;2023-04-16T16:46:44;10.93;;;9.87;;
15198;SDS011;7700;48.654;9.070;2023-04-16T16:49:11;14.10;;;12.67;;
15198;SDS011;7700;48.654;9.070;2023-04-16T16:51:37;15.23;;;13.60;;
15198;SDS011;7700;48.654;9.070;2023-04-16T16:54:04;18.17;;;15.00;;
15198;SDS011;7700;48.654;9.070;2023-04-16T16:56:30;20.90;;;17.43;;
15198;SDS011;7700;48.654;9.070;2023-04-16T16:58:56;20.07;;;17.13;;
15198;SDS011;7700;48.654;9.070;2023-04-16T17:01:22;21.73;;;17.20;;
15198;SDS011;7700;48.654;9.070;2023-04-16T17:03:48;19.33;;;15.77;;
15198;SDS011;7700;48.654;9.070;2023-04-16T17:06:14;20.90;;;16.07;;